sensor_id;sensor_type;location;lat;lon;timestamp;P1;durP1;ratioP1;P2;durP2;ratioP2
2850;SDS011;1433;49.976;8.342;2023-06-22T00:02:04;4.33;;;3.60;;
2850;SDS011;1433;49.976;8.342;2023-06-22T00:04:30;4.13;;;3.70;;
2850;SDS011;1433;49.976;8.342;2023-06-22T00:06:56;5.67;;;4.60;;
2850;SDS011;1433;49.976;8.342;2023-06-22T00:09:22;3.90;;;3.60;;
2850;SDS011;1433;49.976;8.342;2023-06-22T00:11:48;5.40;;;4.90;;
2850;SDS011;1433;49.976;8.342;2023-06-22T00:14:15;7.33;;;5.37;;
2850;SDS011;1433;49.976;8.342;2023-06-22T00:16:41;5.40;;;4.33;;
2850;SDS011;1433;49.976;8.342;2023-06-22T00:19:08;4.37;;;3.87;;
2850;SDS011;1433;49.976;8.342;2023-06-22T00:21:36;5.23;;;4.33;;
2850;SDS011;1433;49.976;8.342;2023-06-22T00:24:03;4.40;;;4.00;;
2850;SDS011;1433;49.976;8.342;2023-06-22T00:26:30;4.97;;;4.27;;
2850;SDS011;1433;49.976;8.342;2023-06-22T00:28:56;5.20;;;4.70;;
2850;SDS011;1433;49.976;8.342;2023-06-22T00:31:22;5.73;;;4.47;;
2850;SDS011;1433;49.976;8.342;2023-06-22T00:33:48;3.87;;;3.47;;
2850;SDS011;1433;49.976;8.342;2023-06-22T00:36:16;5.30;;;4.70;;
2850;SDS011;1433;49.976;8.342;2023-06-22T00:38:43;7.30;;;4.37;;
2850;SDS011;1433;49.976;8.342;2023-06-22T00:41:09;8.53;;;6.23;;
2850;SDS011;1433;49.976;8.342;2023-06-22T00:43:35;5.53;;;5.03;;
2850;SDS011;1433;49.976;8.342;2023-06-22T00:46:02;4.17;;;3.80;;
2850;SDS011;1433;49.976;8.342;2023-06-22T00:48:29;6.93;;;5.40;;
2850;SDS011;1433;49.976;8.342;2023-06-22T00:50:55;5.20;;;4.70;;
2850;SDS011;1433;49.976;8.342;2023-06-22T00:53:22;7.50;;;6.00;;
2850;SDS011;1433;49.976;8.342;2023-06-22T00:55:49;6.70;;;5.00;;
2850;SDS011;1433;49.976;8.342;2023-06-22T00:58:18;6.87;;;5.83;;
2850;SDS011;1433;49.976;8.342;2023-06-22T01:00:48;8.33;;;6.47;;
2850;SDS011;1433;49.976;8.342;2023-06-22T01:03:14;5.03;;;4.53;;
2850;SDS011;1433;49.976;8.342;2023-06-22T01:05:42;7.60;;;5.60;;
2850;SDS011;1433;49.976;8.342;2023-06-22T01:11:01;7.23;;;6.47;;
2850;SDS011;1433;49.976;8.342;2023-06-22T01:13:36;6.17;;;5.57;;
2850;SDS011;1433;49.976;8.342;2023-06-22T01:16:08;9.87;;;6.87;;
2850;SDS011;1433;49.976;8.342;2023-06-22T01:18:38;8.33;;;6.60;;
2850;SDS011;1433;49.976;8.342;2023-06-22T01:21:07;6.20;;;5.43;;
2850;SDS011;1433;49.976;8.342;2023-06-22T01:26:12;7.80;;;5.80;;
2850;SDS011;1433;49.976;8.342;2023-06-22T01:28:55;7.37;;;5.90;;
2850;SDS011;1433;49.976;8.342;2023-06-22T01:31:26;10.40;;;6.30;;
2850;SDS011;1433;49.976;8.342;2023-06-22T01:33:57;8.33;;;7.53;;
2850;SDS011;1433;49.976;8.342;2023-06-22T01:36:26;8.67;;;7.13;;
2850;SDS011;1433;49.976;8.342;2023-06-22T01:38:53;7.40;;;6.60;;
2850;SDS011;1433;49.976;8.342;2023-06-22T01:41:20;9.33;;;7.40;;
2850;SDS011;1433;49.976;8.342;2023-06-22T01:43:47;7.30;;;6.57;;
2850;SDS011;1433;49.976;8.342;2023-06-22T01:46:14;7.50;;;6.50;;
2850;SDS011;1433;49.976;8.342;2023-06-22T01:48:41;7.73;;;6.77;;
2850;SDS011;1433;49.976;8.342;2023-06-22T01:51:07;7.97;;;7.17;;
2850;SDS011;1433;49.976;8.342;2023-06-22T01:53:33;8.10;;;7.17;;
2850;SDS011;1433;49.976;8.342;2023-06-22T01:56:00;7.80;;;7.00;;
2850;SDS011;1433;49.976;8.342;2023-06-22T01:58:29;7.77;;;6.97;;
2850;SDS011;1433;49.976;8.342;2023-06-22T02:01:17;6.93;;;5.43;;
2850;SDS011;1433;49.976;8.342;2023-06-22T02:03:52;7.70;;;6.80;;
2850;SDS011;1433;49.976;8.342;2023-06-22T02:06:21;8.63;;;7.83;;
2850;SDS011;1433;49.976;8.342;2023-06-22T02:08:55;6.70;;;6.03;;
2850;SDS011;1433;49.976;8.342;2023-06-22T02:11:22;6.10;;;5.47;;
2850;SDS011;1433;49.976;8.342;2023-06-22T02:13:50;12.07;;;6.73;;
2850;SDS011;1433;49.976;8.342;2023-06-22T02:16:17;6.70;;;6.00;;
2850;SDS011;1433;49.976;8.342;2023-06-22T02:18:47;7.67;;;6.17;;
2850;SDS011;1433;49.976;8.342;2023-06-22T02:21:18;9.53;;;8.10;;
2850;SDS011;1433;49.976;8.342;2023-06-22T02:23:46;7.43;;;6.70;;
2850;SDS011;1433;49.976;8.342;2023-06-22T02:26:12;7.60;;;6.67;;
2850;SDS011;1433;49.976;8.342;2023-06-22T02:28:39;7.73;;;7.03;;
2850;SDS011;1433;49.976;8.342;2023-06-22T02:31:05;9.17;;;7.53;;
2850;SDS011;1433;49.976;8.342;2023-06-22T02:33:31;6.97;;;4.33;;
2850;SDS011;1433;49.976;8.342;2023-06-22T02:35:57;7.97;;;6.50;;
2850;SDS011;1433;49.976;8.342;2023-06-22T02:38:23;7.23;;;6.23;;
2850;SDS011;1433;49.976;8.342;2023-06-22T02:40:51;9.90;;;7.23;;
2850;SDS011;1433;49.976;8.342;2023-06-22T02:43:17;7.20;;;5.93;;
2850;SDS011;1433;49.976;8.342;2023-06-22T02:45:44;10.83;;;7.00;;
2850;SDS011;1433;49.976;8.342;2023-06-22T02:48:10;8.30;;;7.10;;
2850;SDS011;1433;49.976;8.342;2023-06-22T02:50:37;9.00;;;7.30;;
2850;SDS011;1433;49.976;8.342;2023-06-22T02:53:04;8.60;;;7.00;;
2850;SDS011;1433;49.976;8.342;2023-06-22T02:55:32;8.00;;;6.67;;
2850;SDS011;1433;49.976;8.342;2023-06-22T02:57:58;6.87;;;6.20;;
2850;SDS011;1433;49.976;8.342;2023-06-22T03:00:26;8.00;;;7.00;;
2850;SDS011;1433;49.976;8.342;2023-06-22T03:02:54;7.70;;;6.40;;
2850;SDS011;1433;49.976;8.342;2023-06-22T03:05:21;7.43;;;6.70;;
2850;SDS011;1433;49.976;8.342;2023-06-22T03:07:47;8.80;;;7.43;;
2850;SDS011;1433;49.976;8.342;2023-06-22T03:10:14;9.33;;;7.90;;
2850;SDS011;1433;49.976;8.342;2023-06-22T03:12:41;7.97;;;7.23;;
2850;SDS011;1433;49.976;8.342;2023-06-22T03:15:10;9.57;;;7.47;;
2850;SDS011;1433;49.976;8.342;2023-06-22T03:17:38;8.67;;;7.50;;
2850;SDS011;1433;49.976;8.342;2023-06-22T03:20:07;7.70;;;6.90;;
2850;SDS011;1433;49.976;8.342;2023-06-22T03:22:36;7.70;;;7.00;;
2850;SDS011;1433;49.976;8.342;2023-06-22T03:25:05;8.57;;;6.70;;
2850;SDS011;1433;49.976;8.342;2023-06-22T03:27:33;8.00;;;6.27;;
2850;SDS011;1433;49.976;8.342;2023-06-22T03:30:00;8.33;;;7.43;;
2850;SDS011;1433;49.976;8.342;2023-06-22T03:32:26;9.73;;;7.53;;
2850;SDS011;1433;49.976;8.342;2023-06-22T03:34:53;8.93;;;7.53;;
2850;SDS011;1433;49.976;8.342;2023-06-22T03:37:19;8.33;;;7.27;;
2850;SDS011;1433;49.976;8.342;2023-06-22T03:39:46;8.37;;;7.47;;
2850;SDS011;1433;49.976;8.342;2023-06-22T03:42:14;7.93;;;6.53;;
2850;SDS011;1433;49.976;8.342;2023-06-22T03:44:40;9.57;;;6.90;;
2850;SDS011;1433;49.976;8.342;2023-06-22T03:47:06;8.97;;;6.80;;
2850;SDS011;1433;49.976;8.342;2023-06-22T03:49:33;8.80;;;7.77;;
2850;SDS011;1433;49.976;8.342;2023-06-22T03:52:00;8.90;;;7.77;;
2850;SDS011;1433;49.976;8.342;2023-06-22T03:54:30;10.40;;;7.37;;
2850;SDS011;1433;49.976;8.342;2023-06-22T03:56:57;7.50;;;6.80;;
2850;SDS011;1433;49.976;8.342;2023-06-22T03:59:24;7.27;;;6.57;;
2850;SDS011;1433;49.976;8.342;2023-06-22T04:01:51;8.97;;;6.30;;
2850;SDS011;1433;49.976;8.342;2023-06-22T04:04:17;7.20;;;6.40;;
2850;SDS011;1433;49.976;8.342;2023-06-22T04:06:44;6.97;;;6.30;;
2850;SDS011;1433;49.976;8.342;2023-06-22T04:09:10;10.10;;;8.03;;
2850;SDS011;1433;49.976;8.342;2023-06-22T04:11:36;8.50;;;7.70;;
2850;SDS011;1433;49.976;8.342;2023-06-22T04:14:02;8.47;;;7.07;;
2850;SDS011;1433;49.976;8.342;2023-06-22T04:16:28;6.93;;;6.30;;
2850;SDS011;1433;49.976;8.342;2023-06-22T04:18:55;8.27;;;7.37;;
2850;SDS011;1433;49.976;8.342;2023-06-22T04:21:21;8.40;;;6.60;;
2850;SDS011;1433;49.976;8.342;2023-06-22T04:23:47;6.37;;;5.77;;
2850;SDS011;1433;49.976;8.342;2023-06-22T04:26:13;9.23;;;6.80;;
2850;SDS011;1433;49.976;8.342;2023-06-22T04:28:40;7.93;;;6.10;;
2850;SDS011;1433;49.976;8.342;2023-06-22T04:31:07;7.83;;;6.70;;
2850;SDS011;1433;49.976;8.342;2023-06-22T04:33:33;7.93;;;5.73;;
2850;SDS011;1433;49.976;8.342;2023-06-22T04:35:59;9.90;;;8.50;;
2850;SDS011;1433;49.976;8.342;2023-06-22T04:38:29;8.40;;;6.87;;
2850;SDS011;1433;49.976;8.342;2023-06-22T04:40:57;7.00;;;6.20;;
2850;SDS011;1433;49.976;8.342;2023-06-22T04:43:23;8.57;;;7.07;;
2850;SDS011;1433;49.976;8.342;2023-06-22T04:45:49;6.43;;;5.60;;
2850;SDS011;1433;49.976;8.342;2023-06-22T04:48:18;7.10;;;6.50;;
2850;SDS011;1433;49.976;8.342;2023-06-22T04:50:44;8.57;;;6.30;;
2850;SDS011;1433;49.976;8.342;2023-06-22T04:53:10;7.30;;;6.00;;
2850;SDS011;1433;49.976;8.342;2023-06-22T04:55:39;9.83;;;7.70;;
2850;SDS011;1433;49.976;8.342;2023-06-22T04:58:07;10.63;;;8.23;;
2850;SDS011;1433;49.976;8.342;2023-06-22T05:00:33;11.23;;;8.30;;
2850;SDS011;1433;49.976;8.342;2023-06-22T05:03:01;8.70;;;6.93;;
2850;SDS011;1433;49.976;8.342;2023-06-22T05:05:29;7.80;;;7.07;;
2850;SDS011;1433;49.976;8.342;2023-06-22T05:07:56;8.83;;;7.13;;
2850;SDS011;1433;49.976;8.342;2023-06-22T05:10:25;10.80;;;9.47;;
2850;SDS011;1433;49.976;8.342;2023-06-22T05:12:51;8.40;;;6.90;;
2850;SDS011;1433;49.976;8.342;2023-06-22T05:15:18;9.87;;;7.43;;
2850;SDS011;1433;49.976;8.342;2023-06-22T05:17:47;8.43;;;7.23;;
2850;SDS011;1433;49.976;8.342;2023-06-22T05:20:14;9.77;;;7.57;;
2850;SDS011;1433;49.976;8.342;2023-06-22T05:22:41;10.37;;;7.10;;
2850;SDS011;1433;49.976;8.342;2023-06-22T05:25:09;8.53;;;7.80;;
2850;SDS011;1433;49.976;8.342;2023-06-22T05:27:36;9.47;;;8.40;;
2850;SDS011;1433;49.976;8.342;2023-06-22T05:30:06;8.27;;;7.57;;
2850;SDS011;1433;49.976;8.342;2023-06-22T05:32:33;8.63;;;7.50;;
2850;SDS011;1433;49.976;8.342;2023-06-22T05:35:00;8.00;;;7.10;;
2850;SDS011;1433;49.976;8.342;2023-06-22T05:37:28;8.63;;;7.77;;
2850;SDS011;1433;49.976;8.342;2023-06-22T05:39:54;7.67;;;6.93;;
2850;SDS011;1433;49.976;8.342;2023-06-22T05:42:21;7.60;;;6.47;;
2850;SDS011;1433;49.976;8.342;2023-06-22T05:44:47;8.40;;;6.50;;
2850;SDS011;1433;49.976;8.342;2023-06-22T05:47:13;8.30;;;7.50;;
2850;SDS011;1433;49.976;8.342;2023-06-22T05:49:40;9.47;;;7.03;;
2850;SDS011;1433;49.976;8.342;2023-06-22T05:52:06;9.23;;;7.60;;
2850;SDS011;1433;49.976;8.342;2023-06-22T05:54:32;10.10;;;7.20;;
2850;SDS011;1433;49.976;8.342;2023-06-22T05:56:58;9.20;;;7.93;;
2850;SDS011;1433;49.976;8.342;2023-06-22T05:59:25;8.70;;;7.90;;
2850;SDS011;1433;49.976;8.342;2023-06-22T06:01:51;9.13;;;8.33;;
2850;SDS011;1433;49.976;8.342;2023-06-22T06:04:17;9.37;;;7.33;;
2850;SDS011;1433;49.976;8.342;2023-06-22T06:06:44;9.93;;;7.87;;
2850;SDS011;1433;49.976;8.342;2023-06-22T06:09:13;6.47;;;5.77;;
2850;SDS011;1433;49.976;8.342;2023-06-22T06:11:40;10.40;;;8.03;;
2850;SDS011;1433;49.976;8.342;2023-06-22T06:14:06;8.00;;;7.20;;
2850;SDS011;1433;49.976;8.342;2023-06-22T06:16:32;9.20;;;7.40;;
2850;SDS011;1433;49.976;8.342;2023-06-22T06:18:58;7.33;;;6.63;;
2850;SDS011;1433;49.976;8.342;2023-06-22T06:21:25;8.30;;;7.50;;
2850;SDS011;1433;49.976;8.342;2023-06-22T06:23:51;8.43;;;7.63;;
2850;SDS011;1433;49.976;8.342;2023-06-22T06:26:19;8.50;;;7.57;;
2850;SDS011;1433;49.976;8.342;2023-06-22T06:28:47;8.40;;;6.93;;
2850;SDS011;1433;49.976;8.342;2023-06-22T06:31:13;9.40;;;6.63;;
2850;SDS011;1433;49.976;8.342;2023-06-22T06:33:41;19.63;;;7.60;;
2850;SDS011;1433;49.976;8.342;2023-06-22T06:36:07;7.50;;;6.63;;
2850;SDS011;1433;49.976;8.342;2023-06-22T06:38:34;7.90;;;7.10;;
2850;SDS011;1433;49.976;8.342;2023-06-22T06:41:01;9.00;;;7.87;;
2850;SDS011;1433;49.976;8.342;2023-06-22T06:43:27;10.33;;;7.60;;
2850;SDS011;1433;49.976;8.342;2023-06-22T06:45:53;8.23;;;7.20;;
2850;SDS011;1433;49.976;8.342;2023-06-22T06:48:20;10.20;;;9.00;;
2850;SDS011;1433;49.976;8.342;2023-06-22T06:50:46;7.50;;;6.60;;
2850;SDS011;1433;49.976;8.342;2023-06-22T06:53:12;8.80;;;7.97;;
2850;SDS011;1433;49.976;8.342;2023-06-22T06:55:38;8.43;;;7.00;;
2850;SDS011;1433;49.976;8.342;2023-06-22T06:58:04;6.80;;;6.07;;
2850;SDS011;1433;49.976;8.342;2023-06-22T07:00:32;9.63;;;6.80;;
2850;SDS011;1433;49.976;8.342;2023-06-22T07:02:59;6.50;;;5.80;;
2850;SDS011;1433;49.976;8.342;2023-06-22T07:05:25;8.10;;;7.20;;
2850;SDS011;1433;49.976;8.342;2023-06-22T07:07:52;8.87;;;7.50;;
2850;SDS011;1433;49.976;8.342;2023-06-22T07:10:19;10.30;;;8.30;;
2850;SDS011;1433;49.976;8.342;2023-06-22T07:12:45;8.20;;;7.10;;
2850;SDS011;1433;49.976;8.342;2023-06-22T07:15:12;8.77;;;7.50;;
2850;SDS011;1433;49.976;8.342;2023-06-22T07:17:39;9.30;;;6.53;;
2850;SDS011;1433;49.976;8.342;2023-06-22T07:20:06;7.90;;;7.10;;
2850;SDS011;1433;49.976;8.342;2023-06-22T07:22:37;8.23;;;7.43;;
2850;SDS011;1433;49.976;8.342;2023-06-22T07:25:04;8.60;;;6.70;;
2850;SDS011;1433;49.976;8.342;2023-06-22T07:27:33;9.33;;;6.43;;
2850;SDS011;1433;49.976;8.342;2023-06-22T07:30:01;10.50;;;6.60;;
2850;SDS011;1433;49.976;8.342;2023-06-22T07:32:28;9.17;;;8.27;;
2850;SDS011;1433;49.976;8.342;2023-06-22T07:34:54;8.40;;;7.50;;
2850;SDS011;1433;49.976;8.342;2023-06-22T07:37:20;9.00;;;7.43;;
2850;SDS011;1433;49.976;8.342;2023-06-22T07:39:47;8.27;;;6.70;;
2850;SDS011;1433;49.976;8.342;2023-06-22T07:42:13;7.83;;;7.03;;
2850;SDS011;1433;49.976;8.342;2023-06-22T07:44:41;7.70;;;6.87;;
2850;SDS011;1433;49.976;8.342;2023-06-22T07:47:07;8.50;;;6.60;;
2850;SDS011;1433;49.976;8.342;2023-06-22T07:49:34;7.87;;;6.30;;
2850;SDS011;1433;49.976;8.342;2023-06-22T07:52:00;10.67;;;8.20;;
2850;SDS011;1433;49.976;8.342;2023-06-22T07:54:27;8.43;;;7.60;;
2850;SDS011;1433;49.976;8.342;2023-06-22T07:56:53;7.57;;;6.00;;
2850;SDS011;1433;49.976;8.342;2023-06-22T07:59:19;8.67;;;7.77;;
2850;SDS011;1433;49.976;8.342;2023-06-22T08:01:46;8.27;;;7.47;;
2850;SDS011;1433;49.976;8.342;2023-06-22T08:04:14;7.47;;;6.70;;
2850;SDS011;1433;49.976;8.342;2023-06-22T08:06:40;7.83;;;6.40;;
2850;SDS011;1433;49.976;8.342;2023-06-22T08:09:07;7.70;;;6.70;;
2850;SDS011;1433;49.976;8.342;2023-06-22T08:11:33;7.73;;;6.97;;
2850;SDS011;1433;49.976;8.342;2023-06-22T08:13:59;8.23;;;7.47;;
2850;SDS011;1433;49.976;8.342;2023-06-22T08:16:26;8.50;;;7.03;;
2850;SDS011;1433;49.976;8.342;2023-06-22T08:18:52;9.27;;;7.20;;
2850;SDS011;1433;49.976;8.342;2023-06-22T08:21:18;9.03;;;7.03;;
2850;SDS011;1433;49.976;8.342;2023-06-22T08:23:44;6.83;;;6.10;;
2850;SDS011;1433;49.976;8.342;2023-06-22T08:26:10;8.90;;;6.37;;
2850;SDS011;1433;49.976;8.342;2023-06-22T08:28:36;7.37;;;6.43;;
2850;SDS011;1433;49.976;8.342;2023-06-22T08:31:03;7.60;;;6.47;;
2850;SDS011;1433;49.976;8.342;2023-06-22T08:33:29;7.97;;;6.83;;
2850;SDS011;1433;49.976;8.342;2023-06-22T08:35:57;6.93;;;6.20;;
2850;SDS011;1433;49.976;8.342;2023-06-22T08:38:24;7.90;;;7.10;;
2850;SDS011;1433;49.976;8.342;2023-06-22T08:40:50;7.60;;;6.90;;
2850;SDS011;1433;49.976;8.342;2023-06-22T08:43:16;12.13;;;7.07;;
2850;SDS011;1433;49.976;8.342;2023-06-22T08:45:43;7.73;;;6.93;;
2850;SDS011;1433;49.976;8.342;2023-06-22T08:48:09;9.13;;;6.77;;
2850;SDS011;1433;49.976;8.342;2023-06-22T08:50:35;8.90;;;6.90;;
2850;SDS011;1433;49.976;8.342;2023-06-22T08:53:01;8.70;;;7.10;;
2850;SDS011;1433;49.976;8.342;2023-06-22T08:55:27;8.37;;;7.57;;
2850;SDS011;1433;49.976;8.342;2023-06-22T08:57:53;11.80;;;9.37;;
2850;SDS011;1433;49.976;8.342;2023-06-22T09:00:20;8.93;;;6.87;;
2850;SDS011;1433;49.976;8.342;2023-06-22T09:02:47;7.77;;;7.00;;
2850;SDS011;1433;49.976;8.342;2023-06-22T09:05:14;8.83;;;7.50;;
2850;SDS011;1433;49.976;8.342;2023-06-22T09:07:40;6.43;;;5.83;;
2850;SDS011;1433;49.976;8.342;2023-06-22T09:10:07;12.07;;;7.30;;
2850;SDS011;1433;49.976;8.342;2023-06-22T09:12:34;7.30;;;6.60;;
2850;SDS011;1433;49.976;8.342;2023-06-22T09:15:00;8.80;;;7.00;;
2850;SDS011;1433;49.976;8.342;2023-06-22T09:17:27;7.27;;;6.57;;
2850;SDS011;1433;49.976;8.342;2023-06-22T09:19:53;8.67;;;6.83;;
2850;SDS011;1433;49.976;8.342;2023-06-22T09:22:19;8.13;;;6.80;;
2850;SDS011;1433;49.976;8.342;2023-06-22T09:24:45;9.60;;;7.73;;
2850;SDS011;1433;49.976;8.342;2023-06-22T09:27:12;8.13;;;7.43;;
2850;SDS011;1433;49.976;8.342;2023-06-22T09:29:38;8.20;;;7.33;;
2850;SDS011;1433;49.976;8.342;2023-06-22T09:32:06;10.67;;;7.97;;
2850;SDS011;1433;49.976;8.342;2023-06-22T09:34:33;8.87;;;7.97;;
2850;SDS011;1433;49.976;8.342;2023-06-22T09:36:59;8.00;;;7.23;;
2850;SDS011;1433;49.976;8.342;2023-06-22T09:39:27;7.83;;;6.80;;
2850;SDS011;1433;49.976;8.342;2023-06-22T09:42:00;9.03;;;7.53;;
2850;SDS011;1433;49.976;8.342;2023-06-22T09:44:26;7.67;;;5.83;;
2850;SDS011;1433;49.976;8.342;2023-06-22T09:46:52;7.57;;;4.63;;
2850;SDS011;1433;49.976;8.342;2023-06-22T09:49:19;6.10;;;5.50;;
2850;SDS011;1433;49.976;8.342;2023-06-22T09:51:45;8.23;;;7.33;;
2850;SDS011;1433;49.976;8.342;2023-06-22T09:54:12;6.90;;;6.27;;
2850;SDS011;1433;49.976;8.342;2023-06-22T09:56:38;6.37;;;5.77;;
2850;SDS011;1433;49.976;8.342;2023-06-22T09:59:04;6.43;;;5.83;;
2850;SDS011;1433;49.976;8.342;2023-06-22T10:01:30;7.57;;;6.17;;
2850;SDS011;1433;49.976;8.342;2023-06-22T10:03:56;7.00;;;5.80;;
2850;SDS011;1433;49.976;8.342;2023-06-22T10:06:23;6.93;;;6.33;;
2850;SDS011;1433;49.976;8.342;2023-06-22T10:08:51;7.30;;;6.60;;
2850;SDS011;1433;49.976;8.342;2023-06-22T10:11:17;7.10;;;6.40;;
2850;SDS011;1433;49.976;8.342;2023-06-22T10:13:49;6.00;;;5.40;;
2850;SDS011;1433;49.976;8.342;2023-06-22T10:16:15;6.30;;;5.70;;
2850;SDS011;1433;49.976;8.342;2023-06-22T10:18:41;8.80;;;5.70;;
2850;SDS011;1433;49.976;8.342;2023-06-22T10:21:07;8.07;;;7.30;;
2850;SDS011;1433;49.976;8.342;2023-06-22T10:23:34;5.93;;;5.33;;
2850;SDS011;1433;49.976;8.342;2023-06-22T10:26:00;6.77;;;5.50;;
2850;SDS011;1433;49.976;8.342;2023-06-22T10:28:26;6.70;;;6.10;;
2850;SDS011;1433;49.976;8.342;2023-06-22T10:30:52;5.93;;;5.33;;
2850;SDS011;1433;49.976;8.342;2023-06-22T10:33:19;10.33;;;5.93;;
2850;SDS011;1433;49.976;8.342;2023-06-22T10:35:46;6.33;;;5.80;;
2850;SDS011;1433;49.976;8.342;2023-06-22T10:38:12;6.10;;;5.50;;
2850;SDS011;1433;49.976;8.342;2023-06-22T10:40:38;8.13;;;6.40;;
2850;SDS011;1433;49.976;8.342;2023-06-22T10:43:05;5.33;;;4.50;;
2850;SDS011;1433;49.976;8.342;2023-06-22T10:45:31;8.37;;;5.80;;
2850;SDS011;1433;49.976;8.342;2023-06-22T10:47:57;5.53;;;5.03;;
2850;SDS011;1433;49.976;8.342;2023-06-22T10:50:24;4.90;;;4.40;;
2850;SDS011;1433;49.976;8.342;2023-06-22T10:52:51;6.30;;;5.03;;
2850;SDS011;1433;49.976;8.342;2023-06-22T10:55:17;5.80;;;5.03;;
2850;SDS011;1433;49.976;8.342;2023-06-22T10:57:44;6.33;;;5.83;;
2850;SDS011;1433;49.976;8.342;2023-06-22T11:00:13;4.27;;;3.87;;
2850;SDS011;1433;49.976;8.342;2023-06-22T11:02:40;5.90;;;5.07;;
2850;SDS011;1433;49.976;8.342;2023-06-22T11:05:06;7.50;;;5.17;;
2850;SDS011;1433;49.976;8.342;2023-06-22T11:07:33;6.40;;;5.80;;
2850;SDS011;1433;49.976;8.342;2023-06-22T11:09:59;6.50;;;4.93;;
2850;SDS011;1433;49.976;8.342;2023-06-22T11:12:25;5.50;;;5.00;;
2850;SDS011;1433;49.976;8.342;2023-06-22T11:14:51;5.87;;;5.20;;
2850;SDS011;1433;49.976;8.342;2023-06-22T11:17:18;6.10;;;5.20;;
2850;SDS011;1433;49.976;8.342;2023-06-22T11:19:44;5.90;;;5.40;;
2850;SDS011;1433;49.976;8.342;2023-06-22T11:22:11;5.60;;;4.93;;
2850;SDS011;1433;49.976;8.342;2023-06-22T11:24:38;7.10;;;4.60;;
2850;SDS011;1433;49.976;8.342;2023-06-22T11:27:04;5.50;;;5.00;;
2850;SDS011;1433;49.976;8.342;2023-06-22T11:29:31;4.83;;;4.43;;
2850;SDS011;1433;49.976;8.342;2023-06-22T11:31:57;7.10;;;6.23;;
2850;SDS011;1433;49.976;8.342;2023-06-22T11:34:23;6.20;;;5.60;;
2850;SDS011;1433;49.976;8.342;2023-06-22T11:36:50;5.67;;;4.80;;
2850;SDS011;1433;49.976;8.342;2023-06-22T11:39:16;6.93;;;5.50;;
2850;SDS011;1433;49.976;8.342;2023-06-22T11:41:43;6.60;;;5.97;;
2850;SDS011;1433;49.976;8.342;2023-06-22T11:44:10;6.57;;;5.97;;
2850;SDS011;1433;49.976;8.342;2023-06-22T11:46:36;5.00;;;4.50;;
2850;SDS011;1433;49.976;8.342;2023-06-22T11:49:03;8.13;;;4.80;;
2850;SDS011;1433;49.976;8.342;2023-06-22T11:51:29;7.23;;;5.20;;
2850;SDS011;1433;49.976;8.342;2023-06-22T11:53:57;5.70;;;5.20;;
2850;SDS011;1433;49.976;8.342;2023-06-22T11:56:24;9.03;;;5.67;;
2850;SDS011;1433;49.976;8.342;2023-06-22T11:58:50;6.97;;;6.37;;
2850;SDS011;1433;49.976;8.342;2023-06-22T12:01:17;6.77;;;6.07;;
2850;SDS011;1433;49.976;8.342;2023-06-22T12:03:43;6.30;;;5.77;;
2850;SDS011;1433;49.976;8.342;2023-06-22T12:06:09;6.33;;;5.77;;
2850;SDS011;1433;49.976;8.342;2023-06-22T12:08:36;6.80;;;6.20;;
2850;SDS011;1433;49.976;8.342;2023-06-22T12:11:03;6.10;;;5.63;;
2850;SDS011;1433;49.976;8.342;2023-06-22T12:13:29;6.90;;;5.43;;
2850;SDS011;1433;49.976;8.342;2023-06-22T12:15:55;5.53;;;5.10;;
2850;SDS011;1433;49.976;8.342;2023-06-22T12:18:22;9.33;;;7.00;;
2850;SDS011;1433;49.976;8.342;2023-06-22T12:20:48;5.07;;;4.67;;
2850;SDS011;1433;49.976;8.342;2023-06-22T12:23:14;6.30;;;5.70;;
2850;SDS011;1433;49.976;8.342;2023-06-22T12:25:41;9.20;;;6.08;;
2850;SDS011;1433;49.976;8.342;2023-06-22T12:28:07;7.28;;;6.67;;
2850;SDS011;1433;49.976;8.342;2023-06-22T12:30:33;7.62;;;6.78;;
2850;SDS011;1433;49.976;8.342;2023-06-22T12:32:59;6.62;;;6.12;;
2850;SDS011;1433;49.976;8.342;2023-06-22T12:35:25;5.83;;;5.42;;
2850;SDS011;1433;49.976;8.342;2023-06-22T12:37:51;6.58;;;5.87;;
2850;SDS011;1433;49.976;8.342;2023-06-22T12:40:18;6.78;;;6.05;;
2850;SDS011;1433;49.976;8.342;2023-06-22T12:42:45;7.17;;;6.27;;
2850;SDS011;1433;49.976;8.342;2023-06-22T12:45:11;6.27;;;5.77;;
2850;SDS011;1433;49.976;8.342;2023-06-22T12:47:38;5.43;;;4.93;;
2850;SDS011;1433;49.976;8.342;2023-06-22T12:50:05;7.97;;;6.70;;
2850;SDS011;1433;49.976;8.342;2023-06-22T12:52:31;7.23;;;6.63;;
2850;SDS011;1433;49.976;8.342;2023-06-22T12:54:58;6.20;;;5.60;;
2850;SDS011;1433;49.976;8.342;2023-06-22T12:57:24;7.40;;;5.90;;
2850;SDS011;1433;49.976;8.342;2023-06-22T12:59:51;7.87;;;5.57;;
2850;SDS011;1433;49.976;8.342;2023-06-22T13:02:17;6.70;;;6.17;;
2850;SDS011;1433;49.976;8.342;2023-06-22T13:04:43;7.00;;;6.47;;
2850;SDS011;1433;49.976;8.342;2023-06-22T13:07:10;7.50;;;6.10;;
2850;SDS011;1433;49.976;8.342;2023-06-22T13:09:36;5.87;;;5.27;;
2850;SDS011;1433;49.976;8.342;2023-06-22T13:12:03;6.47;;;5.20;;
2850;SDS011;1433;49.976;8.342;2023-06-22T13:14:29;6.50;;;5.20;;
2850;SDS011;1433;49.976;8.342;2023-06-22T13:16:55;6.60;;;6.00;;
2850;SDS011;1433;49.976;8.342;2023-06-22T13:19:21;5.37;;;4.87;;
2850;SDS011;1433;49.976;8.342;2023-06-22T13:21:48;6.73;;;6.10;;
2850;SDS011;1433;49.976;8.342;2023-06-22T13:24:14;5.80;;;5.20;;
2850;SDS011;1433;49.976;8.342;2023-06-22T13:26:40;5.50;;;5.00;;
2850;SDS011;1433;49.976;8.342;2023-06-22T13:29:07;5.73;;;5.23;;
2850;SDS011;1433;49.976;8.342;2023-06-22T13:31:33;7.20;;;5.63;;
2850;SDS011;1433;49.976;8.342;2023-06-22T13:33:59;6.00;;;5.50;;
2850;SDS011;1433;49.976;8.342;2023-06-22T13:36:25;6.57;;;5.90;;
2850;SDS011;1433;49.976;8.342;2023-06-22T13:38:51;7.90;;;6.70;;
2850;SDS011;1433;49.976;8.342;2023-06-22T13:41:20;6.70;;;5.53;;
2850;SDS011;1433;49.976;8.342;2023-06-22T13:43:46;5.50;;;5.00;;
2850;SDS011;1433;49.976;8.342;2023-06-22T13:46:13;4.40;;;3.73;;
2850;SDS011;1433;49.976;8.342;2023-06-22T13:48:39;4.80;;;4.40;;
2850;SDS011;1433;49.976;8.342;2023-06-22T13:51:05;4.80;;;3.83;;
2850;SDS011;1433;49.976;8.342;2023-06-22T13:53:32;6.25;;;5.42;;
2850;SDS011;1433;49.976;8.342;2023-06-22T13:55:58;12.75;;;4.10;;
2850;SDS011;1433;49.976;8.342;2023-06-22T13:58:24;3.92;;;3.52;;
2850;SDS011;1433;49.976;8.342;2023-06-22T14:00:51;6.73;;;5.40;;
2850;SDS011;1433;49.976;8.342;2023-06-22T14:03:17;3.63;;;3.30;;
2850;SDS011;1433;49.976;8.342;2023-06-22T14:05:43;4.37;;;3.93;;
2850;SDS011;1433;49.976;8.342;2023-06-22T14:08:09;4.28;;;3.58;;
2850;SDS011;1433;49.976;8.342;2023-06-22T14:10:36;4.03;;;3.72;;
2850;SDS011;1433;49.976;8.342;2023-06-22T14:13:02;12.00;;;4.13;;
2850;SDS011;1433;49.976;8.342;2023-06-22T14:15:30;5.33;;;4.70;;
2850;SDS011;1433;49.976;8.342;2023-06-22T14:17:56;3.30;;;3.00;;
2850;SDS011;1433;49.976;8.342;2023-06-22T14:20:24;3.63;;;3.33;;
2850;SDS011;1433;49.976;8.342;2023-06-22T14:22:50;3.97;;;3.43;;
2850;SDS011;1433;49.976;8.342;2023-06-22T14:25:16;5.37;;;4.87;;
2850;SDS011;1433;49.976;8.342;2023-06-22T14:27:42;5.83;;;4.47;;
2850;SDS011;1433;49.976;8.342;2023-06-22T14:30:10;7.00;;;4.00;;
2850;SDS011;1433;49.976;8.342;2023-06-22T14:32:36;5.57;;;5.00;;
2850;SDS011;1433;49.976;8.342;2023-06-22T14:35:03;5.73;;;4.40;;
2850;SDS011;1433;49.976;8.342;2023-06-22T14:37:29;4.73;;;4.00;;
2850;SDS011;1433;49.976;8.342;2023-06-22T14:39:55;4.63;;;4.23;;
2850;SDS011;1433;49.976;8.342;2023-06-22T14:42:22;6.20;;;4.67;;
2850;SDS011;1433;49.976;8.342;2023-06-22T14:44:48;4.40;;;3.93;;
2850;SDS011;1433;49.976;8.342;2023-06-22T14:47:15;8.37;;;4.23;;
2850;SDS011;1433;49.976;8.342;2023-06-22T14:49:43;4.60;;;3.43;;
2850;SDS011;1433;49.976;8.342;2023-06-22T14:52:09;11.80;;;4.30;;
2850;SDS011;1433;49.976;8.342;2023-06-22T14:54:36;5.00;;;4.40;;
2850;SDS011;1433;49.976;8.342;2023-06-22T14:57:02;10.80;;;4.97;;
2850;SDS011;1433;49.976;8.342;2023-06-22T14:59:28;5.60;;;5.10;;
2850;SDS011;1433;49.976;8.342;2023-06-22T15:01:55;8.03;;;4.67;;
2850;SDS011;1433;49.976;8.342;2023-06-22T15:04:21;5.33;;;4.83;;
2850;SDS011;1433;49.976;8.342;2023-06-22T15:06:47;9.30;;;4.93;;
2850;SDS011;1433;49.976;8.342;2023-06-22T15:09:13;12.90;;;6.67;;
2850;SDS011;1433;49.976;8.342;2023-06-22T15:11:39;4.27;;;2.73;;
2850;SDS011;1433;49.976;8.342;2023-06-22T15:14:06;1.63;;;1.53;;
2850;SDS011;1433;49.976;8.342;2023-06-22T15:16:32;1.07;;;0.97;;
2850;SDS011;1433;49.976;8.342;2023-06-22T15:18:58;1.00;;;0.90;;